sensor_id;sensor_type;location;lat;lon;timestamp;temperature;humidity
17092;DHT22;8661;45.700;4.880;2022-09-29T00:00:48;13.60;99.90
17092;DHT22;8661;45.700;4.880;2022-09-29T00:03:15;13.60;99.90
17092;DHT22;8661;45.700;4.880;2022-09-29T00:05:46;13.60;99.90
17092;DHT22;8661;45.700;4.880;2022-09-29T00:08:16;13.60;99.90
17092;DHT22;8661;45.700;4.880;2022-09-29T00:10:44;13.60;99.90
17092;DHT22;8661;45.700;4.880;2022-09-29T00:13:12;13.50;99.90
17092;DHT22;8661;45.700;4.880;2022-09-29T00:15:39;13.50;99.90
17092;DHT22;8661;45.700;4.880;2022-09-29T00:18:06;13.50;99.90
17092;DHT22;8661;45.700;4.880;2022-09-29T00:20:33;13.60;99.90
17092;DHT22;8661;45.700;4.880;2022-09-29T00:23:00;13.50;99.90
17092;DHT22;8661;45.700;4.880;2022-09-29T00:25:29;13.50;99.90
17092;DHT22;8661;45.700;4.880;2022-09-29T00:27:56;13.50;99.90
17092;DHT22;8661;45.700;4.880;2022-09-29T00:30:23;13.60;99.90
17092;DHT22;8661;45.700;4.880;2022-09-29T00:32:50;13.60;99.90
17092;DHT22;8661;45.700;4.880;2022-09-29T00:35:16;13.60;99.90
17092;DHT22;8661;45.700;4.880;2022-09-29T00:37:44;13.60;99.90
17092;DHT22;8661;45.700;4.880;2022-09-29T00:40:11;13.60;99.90
17092;DHT22;8661;45.700;4.880;2022-09-29T00:42:39;13.60;99.90
17092;DHT22;8661;45.700;4.880;2022-09-29T00:45:16;13.60;99.90
17092;DHT22;8661;45.700;4.880;2022-09-29T00:47:46;13.60;99.90
17092;DHT22;8661;45.700;4.880;2022-09-29T00:50:18;13.60;99.90
17092;DHT22;8661;45.700;4.880;2022-09-29T00:52:49;13.50;99.90
17092;DHT22;8661;45.700;4.880;2022-09-29T00:55:21;13.60;99.90
17092;DHT22;8661;45.700;4.880;2022-09-29T00:57:53;13.60;99.90
17092;DHT22;8661;45.700;4.880;2022-09-29T01:00:22;13.60;99.90
17092;DHT22;8661;45.700;4.880;2022-09-29T01:02:51;13.50;99.90
17092;DHT22;8661;45.700;4.880;2022-09-29T01:05:22;13.50;99.90
17092;DHT22;8661;45.700;4.880;2022-09-29T01:07:51;13.50;99.90
17092;DHT22;8661;45.700;4.880;2022-09-29T01:10:18;13.40;99.90
17092;DHT22;8661;45.700;4.880;2022-09-29T01:12:47;13.40;99.90
17092;DHT22;8661;45.700;4.880;2022-09-29T01:15:17;13.40;99.90
17092;DHT22;8661;45.700;4.880;2022-09-29T01:17:45;13.40;99.90
17092;DHT22;8661;45.700;4.880;2022-09-29T01:20:15;13.40;99.90
17092;DHT22;8661;45.700;4.880;2022-09-29T01:26:23;13.40;99.90
17092;DHT22;8661;45.700;4.880;2022-09-29T01:29:21;13.40;99.90
17092;DHT22;8661;45.700;4.880;2022-09-29T01:31:56;13.40;99.90
17092;DHT22;8661;45.700;4.880;2022-09-29T01:34:31;13.40;99.90
17092;DHT22;8661;45.700;4.880;2022-09-29T01:37:07;13.40;99.90
17092;DHT22;8661;45.700;4.880;2022-09-29T01:39:40;13.30;99.90
17092;DHT22;8661;45.700;4.880;2022-09-29T01:42:13;13.30;99.90
17092;DHT22;8661;45.700;4.880;2022-09-29T01:44:45;13.20;99.90
17092;DHT22;8661;45.700;4.880;2022-09-29T01:47:18;13.20;99.90
17092;DHT22;8661;45.700;4.880;2022-09-29T01:49:53;13.20;99.90
17092;DHT22;8661;45.700;4.880;2022-09-29T01:52:24;13.20;99.90
17092;DHT22;8661;45.700;4.880;2022-09-29T01:54:54;13.20;99.90
17092;DHT22;8661;45.700;4.880;2022-09-29T01:57:28;13.10;99.90
17092;DHT22;8661;45.700;4.880;2022-09-29T02:00:01;13.10;99.90
17092;DHT22;8661;45.700;4.880;2022-09-29T02:02:35;13.10;99.90
17092;DHT22;8661;45.700;4.880;2022-09-29T02:05:08;13.10;99.90
17092;DHT22;8661;45.700;4.880;2022-09-29T02:07:40;13.10;99.90
17092;DHT22;8661;45.700;4.880;2022-09-29T02:10:11;13.10;99.90
17092;DHT22;8661;45.700;4.880;2022-09-29T02:12:40;13.10;99.90
17092;DHT22;8661;45.700;4.880;2022-09-29T02:15:12;13.10;99.90
17092;DHT22;8661;45.700;4.880;2022-09-29T02:17:43;13.10;99.90
17092;DHT22;8661;45.700;4.880;2022-09-29T02:20:11;13.10;99.90
17092;DHT22;8661;45.700;4.880;2022-09-29T02:22:39;13.10;99.90
17092;DHT22;8661;45.700;4.880;2022-09-29T02:25:08;13.00;99.90
17092;DHT22;8661;45.700;4.880;2022-09-29T02:27:37;13.00;99.90
17092;DHT22;8661;45.700;4.880;2022-09-29T02:30:05;12.90;99.90
17092;DHT22;8661;45.700;4.880;2022-09-29T02:32:34;12.90;99.90
17092;DHT22;8661;45.700;4.880;2022-09-29T02:35:05;12.90;99.90
17092;DHT22;8661;45.700;4.880;2022-09-29T02:37:46;12.80;99.90
17092;DHT22;8661;45.700;4.880;2022-09-29T02:40:27;12.70;99.90
17092;DHT22;8661;45.700;4.880;2022-09-29T02:43:11;12.70;99.90
17092;DHT22;8661;45.700;4.880;2022-09-29T02:45:47;12.60;99.90
17092;DHT22;8661;45.700;4.880;2022-09-29T02:48:29;12.60;99.90
17092;DHT22;8661;45.700;4.880;2022-09-29T02:51:09;12.60;99.90
17092;DHT22;8661;45.700;4.880;2022-09-29T02:53:51;12.60;99.90
17092;DHT22;8661;45.700;4.880;2022-09-29T02:56:27;12.50;99.90
17092;DHT22;8661;45.700;4.880;2022-09-29T02:59:04;12.50;99.90
17092;DHT22;8661;45.700;4.880;2022-09-29T03:01:33;12.40;99.90
17092;DHT22;8661;45.700;4.880;2022-09-29T03:04:00;12.40;99.90
17092;DHT22;8661;45.700;4.880;2022-09-29T03:06:29;12.40;99.90
17092;DHT22;8661;45.700;4.880;2022-09-29T03:08:55;12.40;99.90
17092;DHT22;8661;45.700;4.880;2022-09-29T03:11:22;12.40;99.90
17092;DHT22;8661;45.700;4.880;2022-09-29T03:13:49;12.30;99.90
17092;DHT22;8661;45.700;4.880;2022-09-29T03:16:16;12.30;99.90
17092;DHT22;8661;45.700;4.880;2022-09-29T03:18:43;12.30;99.90
17092;DHT22;8661;45.700;4.880;2022-09-29T03:21:10;12.30;99.90
17092;DHT22;8661;45.700;4.880;2022-09-29T03:23:38;12.30;99.90
17092;DHT22;8661;45.700;4.880;2022-09-29T03:26:05;12.30;99.90
17092;DHT22;8661;45.700;4.880;2022-09-29T03:28:32;12.30;99.90
17092;DHT22;8661;45.700;4.880;2022-09-29T03:31:03;12.30;99.90
17092;DHT22;8661;45.700;4.880;2022-09-29T03:33:31;12.30;99.90
17092;DHT22;8661;45.700;4.880;2022-09-29T03:35:58;12.30;99.90
17092;DHT22;8661;45.700;4.880;2022-09-29T03:38:26;12.30;99.90
17092;DHT22;8661;45.700;4.880;2022-09-29T03:40:54;12.30;99.90
17092;DHT22;8661;45.700;4.880;2022-09-29T03:43:21;12.30;99.90
17092;DHT22;8661;45.700;4.880;2022-09-29T03:45:48;12.30;99.90
17092;DHT22;8661;45.700;4.880;2022-09-29T03:48:15;12.30;99.90
17092;DHT22;8661;45.700;4.880;2022-09-29T03:50:44;12.30;99.90
17092;DHT22;8661;45.700;4.880;2022-09-29T03:53:11;12.30;99.90
17092;DHT22;8661;45.700;4.880;2022-09-29T03:55:38;12.30;99.90
17092;DHT22;8661;45.700;4.880;2022-09-29T03:58:06;12.30;99.90
17092;DHT22;8661;45.700;4.880;2022-09-29T04:00:33;12.30;99.90
17092;DHT22;8661;45.700;4.880;2022-09-29T04:03:00;12.40;99.90
17092;DHT22;8661;45.700;4.880;2022-09-29T04:05:28;12.40;99.90
17092;DHT22;8661;45.700;4.880;2022-09-29T04:07:55;12.40;99.90
17092;DHT22;8661;45.700;4.880;2022-09-29T04:10:22;12.40;99.90
17092;DHT22;8661;45.700;4.880;2022-09-29T04:12:49;12.40;99.90
17092;DHT22;8661;45.700;4.880;2022-09-29T04:15:17;12.40;99.90
17092;DHT22;8661;45.700;4.880;2022-09-29T04:17:44;12.40;99.90
17092;DHT22;8661;45.700;4.880;2022-09-29T04:20:11;12.50;99.90
17092;DHT22;8661;45.700;4.880;2022-09-29T04:22:38;12.50;99.90
17092;DHT22;8661;45.700;4.880;2022-09-29T04:25:06;12.50;99.90
17092;DHT22;8661;45.700;4.880;2022-09-29T04:27:33;12.50;99.90
17092;DHT22;8661;45.700;4.880;2022-09-29T04:30:00;12.50;99.90
17092;DHT22;8661;45.700;4.880;2022-09-29T04:32:28;12.50;99.90
17092;DHT22;8661;45.700;4.880;2022-09-29T04:34:55;12.50;99.90
17092;DHT22;8661;45.700;4.880;2022-09-29T04:37:22;12.40;99.90
17092;DHT22;8661;45.700;4.880;2022-09-29T04:39:49;12.40;99.90
17092;DHT22;8661;45.700;4.880;2022-09-29T04:42:18;12.30;99.90
17092;DHT22;8661;45.700;4.880;2022-09-29T04:44:45;12.30;99.90
17092;DHT22;8661;45.700;4.880;2022-09-29T04:47:12;12.20;99.90
17092;DHT22;8661;45.700;4.880;2022-09-29T04:49:41;12.20;99.90
17092;DHT22;8661;45.700;4.880;2022-09-29T04:52:10;12.20;99.90
17092;DHT22;8661;45.700;4.880;2022-09-29T04:54:37;12.10;99.90
17092;DHT22;8661;45.700;4.880;2022-09-29T04:57:04;12.10;99.90
17092;DHT22;8661;45.700;4.880;2022-09-29T04:59:31;12.10;99.90
17092;DHT22;8661;45.700;4.880;2022-09-29T05:01:58;12.10;99.90
17092;DHT22;8661;45.700;4.880;2022-09-29T05:04:25;12.00;99.90
17092;DHT22;8661;45.700;4.880;2022-09-29T05:06:53;12.00;99.90
17092;DHT22;8661;45.700;4.880;2022-09-29T05:09:20;12.00;99.90
17092;DHT22;8661;45.700;4.880;2022-09-29T05:11:47;12.00;99.90
17092;DHT22;8661;45.700;4.880;2022-09-29T05:14:14;12.00;99.90
17092;DHT22;8661;45.700;4.880;2022-09-29T05:16:40;11.90;99.90
17092;DHT22;8661;45.700;4.880;2022-09-29T05:19:07;11.90;99.90
17092;DHT22;8661;45.700;4.880;2022-09-29T05:21:35;11.90;99.90
17092;DHT22;8661;45.700;4.880;2022-09-29T05:24:04;11.90;99.90
17092;DHT22;8661;45.700;4.880;2022-09-29T05:26:31;11.90;99.90
17092;DHT22;8661;45.700;4.880;2022-09-29T05:28:58;12.00;99.90
17092;DHT22;8661;45.700;4.880;2022-09-29T05:31:24;12.00;99.90
17092;DHT22;8661;45.700;4.880;2022-09-29T05:33:51;12.00;99.90
17092;DHT22;8661;45.700;4.880;2022-09-29T05:36:20;12.00;99.90
17092;DHT22;8661;45.700;4.880;2022-09-29T05:38:47;12.00;99.90
17092;DHT22;8661;45.700;4.880;2022-09-29T05:41:15;12.00;99.90
17092;DHT22;8661;45.700;4.880;2022-09-29T05:43:47;12.00;99.90
17092;DHT22;8661;45.700;4.880;2022-09-29T05:46:14;12.10;99.90
17092;DHT22;8661;45.700;4.880;2022-09-29T05:48:42;12.10;99.90
17092;DHT22;8661;45.700;4.880;2022-09-29T05:51:11;12.00;99.90
17092;DHT22;8661;45.700;4.880;2022-09-29T05:53:39;12.10;99.90
17092;DHT22;8661;45.700;4.880;2022-09-29T05:56:07;12.10;99.90
17092;DHT22;8661;45.700;4.880;2022-09-29T05:58:37;12.10;99.90
17092;DHT22;8661;45.700;4.880;2022-09-29T06:01:05;12.20;99.90
17092;DHT22;8661;45.700;4.880;2022-09-29T06:03:33;12.20;99.90
17092;DHT22;8661;45.700;4.880;2022-09-29T06:06:07;12.20;99.90
17092;DHT22;8661;45.700;4.880;2022-09-29T06:08:34;12.20;99.90
17092;DHT22;8661;45.700;4.880;2022-09-29T06:11:03;12.20;99.90
17092;DHT22;8661;45.700;4.880;2022-09-29T06:13:30;12.20;99.90
17092;DHT22;8661;45.700;4.880;2022-09-29T06:15:59;12.20;99.90
17092;DHT22;8661;45.700;4.880;2022-09-29T06:18:26;12.20;99.90
17092;DHT22;8661;45.700;4.880;2022-09-29T06:20:53;12.20;99.90
17092;DHT22;8661;45.700;4.880;2022-09-29T06:23:25;12.20;99.90
17092;DHT22;8661;45.700;4.880;2022-09-29T06:25:55;12.30;99.90
17092;DHT22;8661;45.700;4.880;2022-09-29T06:28:22;12.30;99.90
17092;DHT22;8661;45.700;4.880;2022-09-29T06:30:49;12.30;99.90
17092;DHT22;8661;45.700;4.880;2022-09-29T06:33:17;12.40;99.90
17092;DHT22;8661;45.700;4.880;2022-09-29T06:35:45;12.40;99.90
17092;DHT22;8661;45.700;4.880;2022-09-29T06:38:30;12.40;99.90
17092;DHT22;8661;45.700;4.880;2022-09-29T06:40:57;12.40;99.90
17092;DHT22;8661;45.700;4.880;2022-09-29T06:43:24;12.40;99.90
17092;DHT22;8661;45.700;4.880;2022-09-29T06:45:51;12.40;99.90
17092;DHT22;8661;45.700;4.880;2022-09-29T06:48:19;12.40;99.90
17092;DHT22;8661;45.700;4.880;2022-09-29T06:50:46;12.50;99.90
17092;DHT22;8661;45.700;4.880;2022-09-29T06:53:13;12.50;99.90
17092;DHT22;8661;45.700;4.880;2022-09-29T06:55:40;12.50;99.90
17092;DHT22;8661;45.700;4.880;2022-09-29T06:58:06;12.50;99.90
17092;DHT22;8661;45.700;4.880;2022-09-29T07:00:34;12.60;99.90
17092;DHT22;8661;45.700;4.880;2022-09-29T07:03:01;12.50;99.90
17092;DHT22;8661;45.700;4.880;2022-09-29T07:05:29;12.60;99.90
17092;DHT22;8661;45.700;4.880;2022-09-29T07:07:57;12.70;99.90
17092;DHT22;8661;45.700;4.880;2022-09-29T07:10:24;13.10;99.90
17092;DHT22;8661;45.700;4.880;2022-09-29T07:12:51;13.50;99.90
17092;DHT22;8661;45.700;4.880;2022-09-29T07:15:20;13.70;99.90
17092;DHT22;8661;45.700;4.880;2022-09-29T07:17:55;13.70;99.90
17092;DHT22;8661;45.700;4.880;2022-09-29T07:20:23;14.00;99.90
17092;DHT22;8661;45.700;4.880;2022-09-29T07:22:52;14.00;99.90
17092;DHT22;8661;45.700;4.880;2022-09-29T07:25:20;14.00;99.90
17092;DHT22;8661;45.700;4.880;2022-09-29T07:27:47;14.10;99.90
17092;DHT22;8661;45.700;4.880;2022-09-29T07:30:16;14.30;99.90
17092;DHT22;8661;45.700;4.880;2022-09-29T07:32:43;14.40;99.90
17092;DHT22;8661;45.700;4.880;2022-09-29T07:35:10;14.40;99.90
17092;DHT22;8661;45.700;4.880;2022-09-29T07:37:37;14.50;99.90
17092;DHT22;8661;45.700;4.880;2022-09-29T07:40:07;14.50;99.90
17092;DHT22;8661;45.700;4.880;2022-09-29T07:42:35;14.40;99.90
17092;DHT22;8661;45.700;4.880;2022-09-29T07:45:02;14.50;99.90
17092;DHT22;8661;45.700;4.880;2022-09-29T07:47:29;14.60;99.90
17092;DHT22;8661;45.700;4.880;2022-09-29T07:49:56;14.70;99.90
17092;DHT22;8661;45.700;4.880;2022-09-29T07:52:24;14.70;99.90
17092;DHT22;8661;45.700;4.880;2022-09-29T07:54:51;14.70;99.90
17092;DHT22;8661;45.700;4.880;2022-09-29T07:57:19;14.60;99.90
17092;DHT22;8661;45.700;4.880;2022-09-29T07:59:46;14.60;99.90
17092;DHT22;8661;45.700;4.880;2022-09-29T08:02:13;14.50;99.90
17092;DHT22;8661;45.700;4.880;2022-09-29T08:04:41;14.20;99.90
17092;DHT22;8661;45.700;4.880;2022-09-29T08:07:09;14.00;99.90
17092;DHT22;8661;45.700;4.880;2022-09-29T08:09:36;13.80;99.90
17092;DHT22;8661;45.700;4.880;2022-09-29T08:12:03;13.70;99.90
17092;DHT22;8661;45.700;4.880;2022-09-29T08:14:32;13.70;99.90
17092;DHT22;8661;45.700;4.880;2022-09-29T08:16:59;13.60;99.90
17092;DHT22;8661;45.700;4.880;2022-09-29T08:19:26;13.60;99.90
17092;DHT22;8661;45.700;4.880;2022-09-29T08:21:53;13.60;99.90
17092;DHT22;8661;45.700;4.880;2022-09-29T08:24:20;13.50;99.90
17092;DHT22;8661;45.700;4.880;2022-09-29T08:26:48;13.60;99.90
17092;DHT22;8661;45.700;4.880;2022-09-29T08:29:15;13.50;99.90
17092;DHT22;8661;45.700;4.880;2022-09-29T08:31:44;13.50;99.90
17092;DHT22;8661;45.700;4.880;2022-09-29T08:34:11;13.50;99.90
17092;DHT22;8661;45.700;4.880;2022-09-29T08:36:40;13.60;99.90
17092;DHT22;8661;45.700;4.880;2022-09-29T08:39:09;13.60;99.90
17092;DHT22;8661;45.700;4.880;2022-09-29T08:41:49;13.60;99.90
17092;DHT22;8661;45.700;4.880;2022-09-29T08:44:22;13.70;99.90
17092;DHT22;8661;45.700;4.880;2022-09-29T08:46:54;13.80;99.90
17092;DHT22;8661;45.700;4.880;2022-09-29T08:49:26;13.90;99.90
17092;DHT22;8661;45.700;4.880;2022-09-29T08:52:03;14.00;99.90
17092;DHT22;8661;45.700;4.880;2022-09-29T08:54:33;14.10;99.90
17092;DHT22;8661;45.700;4.880;2022-09-29T08:57:01;14.20;99.90
17092;DHT22;8661;45.700;4.880;2022-09-29T08:59:28;14.30;99.90
17092;DHT22;8661;45.700;4.880;2022-09-29T09:05:06;14.30;99.90
17092;DHT22;8661;45.700;4.880;2022-09-29T09:07:40;14.40;99.90
17092;DHT22;8661;45.700;4.880;2022-09-29T09:10:17;14.50;99.90
17092;DHT22;8661;45.700;4.880;2022-09-29T09:13:16;14.70;99.90
17092;DHT22;8661;45.700;4.880;2022-09-29T09:16:11;14.90;99.90
17092;DHT22;8661;45.700;4.880;2022-09-29T09:19:25;15.20;99.90
17092;DHT22;8661;45.700;4.880;2022-09-29T09:22:00;15.20;99.90
17092;DHT22;8661;45.700;4.880;2022-09-29T09:24:36;15.10;99.90
17092;DHT22;8661;45.700;4.880;2022-09-29T09:27:12;15.00;99.90
17092;DHT22;8661;45.700;4.880;2022-09-29T09:29:42;15.00;99.90
17092;DHT22;8661;45.700;4.880;2022-09-29T09:32:12;14.90;99.90
17092;DHT22;8661;45.700;4.880;2022-09-29T09:34:45;14.90;99.90
17092;DHT22;8661;45.700;4.880;2022-09-29T09:37:17;14.60;99.90
17092;DHT22;8661;45.700;4.880;2022-09-29T09:39:50;14.50;99.90
17092;DHT22;8661;45.700;4.880;2022-09-29T09:42:24;14.50;99.90
17092;DHT22;8661;45.700;4.880;2022-09-29T09:44:56;14.50;99.90
17092;DHT22;8661;45.700;4.880;2022-09-29T09:47:27;14.40;99.90
17092;DHT22;8661;45.700;4.880;2022-09-29T09:50:00;14.30;99.90
17092;DHT22;8661;45.700;4.880;2022-09-29T09:52:32;14.30;99.90
17092;DHT22;8661;45.700;4.880;2022-09-29T09:55:05;14.40;99.90
17092;DHT22;8661;45.700;4.880;2022-09-29T09:58:06;14.50;99.90
17092;DHT22;8661;45.700;4.880;2022-09-29T10:00:42;14.50;99.90
17092;DHT22;8661;45.700;4.880;2022-09-29T10:03:13;14.60;99.90
17092;DHT22;8661;45.700;4.880;2022-09-29T10:05:44;14.60;99.90
17092;DHT22;8661;45.700;4.880;2022-09-29T10:08:20;14.70;99.90
17092;DHT22;8661;45.700;4.880;2022-09-29T10:10:50;14.40;99.90
17092;DHT22;8661;45.700;4.880;2022-09-29T10:13:19;14.50;99.90
17092;DHT22;8661;45.700;4.880;2022-09-29T10:15:51;14.60;99.90
17092;DHT22;8661;45.700;4.880;2022-09-29T10:18:23;14.60;99.90
17092;DHT22;8661;45.700;4.880;2022-09-29T10:20:53;14.50;99.90
17092;DHT22;8661;45.700;4.880;2022-09-29T10:23:29;14.50;99.90
17092;DHT22;8661;45.700;4.880;2022-09-29T10:25:59;14.70;99.90
17092;DHT22;8661;45.700;4.880;2022-09-29T10:28:35;14.80;99.90
17092;DHT22;8661;45.700;4.880;2022-09-29T10:31:15;14.80;99.90
17092;DHT22;8661;45.700;4.880;2022-09-29T10:33:47;14.60;99.90
17092;DHT22;8661;45.700;4.880;2022-09-29T10:36:17;14.60;99.90
17092;DHT22;8661;45.700;4.880;2022-09-29T10:38:48;14.70;99.90
17092;DHT22;8661;45.700;4.880;2022-09-29T10:41:16;15.00;99.90
17092;DHT22;8661;45.700;4.880;2022-09-29T10:43:45;15.30;99.90
17092;DHT22;8661;45.700;4.880;2022-09-29T10:46:36;15.60;99.90
17092;DHT22;8661;45.700;4.880;2022-09-29T10:49:08;15.70;99.90
17092;DHT22;8661;45.700;4.880;2022-09-29T10:51:38;15.60;99.90
17092;DHT22;8661;45.700;4.880;2022-09-29T10:54:07;15.60;99.90
17092;DHT22;8661;45.700;4.880;2022-09-29T10:56:35;15.90;99.90
17092;DHT22;8661;45.700;4.880;2022-09-29T10:59:03;16.10;99.90
17092;DHT22;8661;45.700;4.880;2022-09-29T11:01:32;16.20;99.90
17092;DHT22;8661;45.700;4.880;2022-09-29T11:04:05;16.30;99.90
17092;DHT22;8661;45.700;4.880;2022-09-29T11:06:34;16.30;99.90
17092;DHT22;8661;45.700;4.880;2022-09-29T11:09:04;16.20;99.90
17092;DHT22;8661;45.700;4.880;2022-09-29T11:11:33;16.20;99.90
17092;DHT22;8661;45.700;4.880;2022-09-29T11:14:00;16.40;99.90
17092;DHT22;8661;45.700;4.880;2022-09-29T11:16:29;16.30;99.90
17092;DHT22;8661;45.700;4.880;2022-09-29T11:19:00;16.20;99.90
17092;DHT22;8661;45.700;4.880;2022-09-29T11:21:56;16.20;99.90
17092;DHT22;8661;45.700;4.880;2022-09-29T11:24:37;15.90;99.90
17092;DHT22;8661;45.700;4.880;2022-09-29T11:27:14;15.90;99.90
17092;DHT22;8661;45.700;4.880;2022-09-29T11:29:51;16.10;99.90
17092;DHT22;8661;45.700;4.880;2022-09-29T11:32:42;16.00;99.90
17092;DHT22;8661;45.700;4.880;2022-09-29T11:35:29;16.20;99.90
17092;DHT22;8661;45.700;4.880;2022-09-29T11:38:12;16.40;99.90
17092;DHT22;8661;45.700;4.880;2022-09-29T11:40:53;16.90;99.90
17092;DHT22;8661;45.700;4.880;2022-09-29T11:43:35;17.70;99.90
17092;DHT22;8661;45.700;4.880;2022-09-29T11:46:19;18.30;99.90
17092;DHT22;8661;45.700;4.880;2022-09-29T11:49:02;18.60;99.90
17092;DHT22;8661;45.700;4.880;2022-09-29T11:51:47;18.80;99.90
17092;DHT22;8661;45.700;4.880;2022-09-29T11:54:26;18.90;99.90
17092;DHT22;8661;45.700;4.880;2022-09-29T11:57:03;19.00;99.90
17092;DHT22;8661;45.700;4.880;2022-09-29T11:59:48;19.70;99.90
17092;DHT22;8661;45.700;4.880;2022-09-29T12:05:27;21.30;99.90
17092;DHT22;8661;45.700;4.880;2022-09-29T12:08:06;22.00;99.90
17092;DHT22;8661;45.700;4.880;2022-09-29T12:10:45;22.20;99.90
17092;DHT22;8661;45.700;4.880;2022-09-29T12:13:24;21.70;99.90
17092;DHT22;8661;45.700;4.880;2022-09-29T12:15:57;21.30;99.90
17092;DHT22;8661;45.700;4.880;2022-09-29T12:18:29;21.10;99.90
17092;DHT22;8661;45.700;4.880;2022-09-29T12:20:58;21.00;99.90
17092;DHT22;8661;45.700;4.880;2022-09-29T12:23:28;20.90;99.90
17092;DHT22;8661;45.700;4.880;2022-09-29T12:25:59;20.80;99.90
17092;DHT22;8661;45.700;4.880;2022-09-29T12:28:34;20.50;99.90
17092;DHT22;8661;45.700;4.880;2022-09-29T12:31:09;20.50;99.90
17092;DHT22;8661;45.700;4.880;2022-09-29T12:33:43;20.50;99.90
17092;DHT22;8661;45.700;4.880;2022-09-29T12:36:37;20.50;99.90
17092;DHT22;8661;45.700;4.880;2022-09-29T12:39:22;20.80;99.90
17092;DHT22;8661;45.700;4.880;2022-09-29T12:41:54;20.90;99.90
17092;DHT22;8661;45.700;4.880;2022-09-29T12:44:28;21.00;99.90
17092;DHT22;8661;45.700;4.880;2022-09-29T12:47:02;21.60;99.90
17092;DHT22;8661;45.700;4.880;2022-09-29T12:49:36;22.20;99.90
17092;DHT22;8661;45.700;4.880;2022-09-29T12:52:11;22.20;99.90
17092;DHT22;8661;45.700;4.880;2022-09-29T12:54:45;21.70;99.90
17092;DHT22;8661;45.700;4.880;2022-09-29T12:57:15;21.40;99.90
17092;DHT22;8661;45.700;4.880;2022-09-29T12:59:51;21.60;99.90
17092;DHT22;8661;45.700;4.880;2022-09-29T13:02:50;21.70;98.40
17092;DHT22;8661;45.700;4.880;2022-09-29T13:05:33;21.40;96.80
17092;DHT22;8661;45.700;4.880;2022-09-29T13:08:27;21.70;97.80
17092;DHT22;8661;45.700;4.880;2022-09-29T13:11:21;21.20;95.20
17092;DHT22;8661;45.700;4.880;2022-09-29T13:14:13;20.60;98.10
17092;DHT22;8661;45.700;4.880;2022-09-29T13:17:02;20.60;99.90
17092;DHT22;8661;45.700;4.880;2022-09-29T13:20:15;20.80;99.30
17092;DHT22;8661;45.700;4.880;2022-09-29T13:25:53;20.40;98.60
17092;DHT22;8661;45.700;4.880;2022-09-29T13:28:30;20.20;97.40
17092;DHT22;8661;45.700;4.880;2022-09-29T13:31:02;19.90;97.30
17092;DHT22;8661;45.700;4.880;2022-09-29T13:33:33;19.70;97.50
17092;DHT22;8661;45.700;4.880;2022-09-29T13:36:02;19.40;97.10
17092;DHT22;8661;45.700;4.880;2022-09-29T13:38:33;19.00;98.10
17092;DHT22;8661;45.700;4.880;2022-09-29T13:41:12;18.80;98.50
17092;DHT22;8661;45.700;4.880;2022-09-29T13:44:18;18.70;99.90
17092;DHT22;8661;45.700;4.880;2022-09-29T13:46:48;18.50;99.90
17092;DHT22;8661;45.700;4.880;2022-09-29T13:49:28;18.30;99.90
17092;DHT22;8661;45.700;4.880;2022-09-29T13:51:59;18.30;99.90
17092;DHT22;8661;45.700;4.880;2022-09-29T13:54:36;18.30;99.90
17092;DHT22;8661;45.700;4.880;2022-09-29T13:57:27;18.30;99.90
17092;DHT22;8661;45.700;4.880;2022-09-29T14:00:16;18.00;99.90
17092;DHT22;8661;45.700;4.880;2022-09-29T14:03:00;18.30;99.80
17092;DHT22;8661;45.700;4.880;2022-09-29T14:05:55;18.50;99.80
17092;DHT22;8661;45.700;4.880;2022-09-29T14:08:27;18.40;98.40
17092;DHT22;8661;45.700;4.880;2022-09-29T14:11:06;18.70;99.20
17092;DHT22;8661;45.700;4.880;2022-09-29T14:13:42;19.20;97.20
17092;DHT22;8661;45.700;4.880;2022-09-29T14:16:19;19.30;97.10
17092;DHT22;8661;45.700;4.880;2022-09-29T14:18:52;19.10;97.00
17092;DHT22;8661;45.700;4.880;2022-09-29T14:21:51;19.60;97.60
17092;DHT22;8661;45.700;4.880;2022-09-29T14:24:41;20.20;94.20
17092;DHT22;8661;45.700;4.880;2022-09-29T14:27:26;20.50;92.80
17092;DHT22;8661;45.700;4.880;2022-09-29T14:30:05;20.40;93.40
17092;DHT22;8661;45.700;4.880;2022-09-29T14:32:41;20.30;93.60
17092;DHT22;8661;45.700;4.880;2022-09-29T14:35:18;20.50;93.50
17092;DHT22;8661;45.700;4.880;2022-09-29T14:37:56;20.70;92.50
17092;DHT22;8661;45.700;4.880;2022-09-29T14:40:24;20.90;92.10
17092;DHT22;8661;45.700;4.880;2022-09-29T14:49:27;21.00;90.00
17092;DHT22;8661;45.700;4.880;2022-09-29T14:52:20;21.20;90.60
17092;DHT22;8661;45.700;4.880;2022-09-29T14:55:00;21.00;90.40
17092;DHT22;8661;45.700;4.880;2022-09-29T14:57:38;21.00;90.60
17092;DHT22;8661;45.700;4.880;2022-09-29T15:00:13;20.60;90.60
17092;DHT22;8661;45.700;4.880;2022-09-29T15:02:44;20.40;91.00
17092;DHT22;8661;45.700;4.880;2022-09-29T15:05:14;20.30;91.10
17092;DHT22;8661;45.700;4.880;2022-09-29T15:07:49;20.50;91.60
17092;DHT22;8661;45.700;4.880;2022-09-29T15:10:23;20.80;92.70
17092;DHT22;8661;45.700;4.880;2022-09-29T15:12:51;20.80;90.90
17092;DHT22;8661;45.700;4.880;2022-09-29T15:15:32;20.60;91.20
17092;DHT22;8661;45.700;4.880;2022-09-29T15:18:09;20.40;90.80
17092;DHT22;8661;45.700;4.880;2022-09-29T15:20:50;19.90;91.60
17092;DHT22;8661;45.700;4.880;2022-09-29T15:23:35;19.60;92.60
17092;DHT22;8661;45.700;4.880;2022-09-29T15:26:11;19.30;92.40
17092;DHT22;8661;45.700;4.880;2022-09-29T15:28:40;18.90;92.70
17092;DHT22;8661;45.700;4.880;2022-09-29T15:31:10;18.70;93.60
17092;DHT22;8661;45.700;4.880;2022-09-29T15:33:39;18.60;93.70
17092;DHT22;8661;45.700;4.880;2022-09-29T15:36:18;18.40;94.50
17092;DHT22;8661;45.700;4.880;2022-09-29T15:38:47;18.20;94.90
17092;DHT22;8661;45.700;4.880;2022-09-29T15:41:20;18.20;95.30
17092;DHT22;8661;45.700;4.880;2022-09-29T15:43:53;18.00;95.70
17092;DHT22;8661;45.700;4.880;2022-09-29T15:46:22;17.80;95.80
17092;DHT22;8661;45.700;4.880;2022-09-29T15:49:10;17.70;96.00
17092;DHT22;8661;45.700;4.880;2022-09-29T15:51:37;17.60;96.90
17092;DHT22;8661;45.700;4.880;2022-09-29T15:54:06;17.60;97.20
17092;DHT22;8661;45.700;4.880;2022-09-29T15:56:37;17.40;97.40
17092;DHT22;8661;45.700;4.880;2022-09-29T15:59:18;17.40;98.10
17092;DHT22;8661;45.700;4.880;2022-09-29T16:01:46;17.00;98.20
17092;DHT22;8661;45.700;4.880;2022-09-29T16:04:13;17.00;98.70
17092;DHT22;8661;45.700;4.880;2022-09-29T16:06:43;17.00;99.00
17092;DHT22;8661;45.700;4.880;2022-09-29T16:09:16;17.00;99.80
17092;DHT22;8661;45.700;4.880;2022-09-29T16:11:45;16.90;99.90
17092;DHT22;8661;45.700;4.880;2022-09-29T16:14:20;17.00;99.90
17092;DHT22;8661;45.700;4.880;2022-09-29T16:16:50;17.10;99.90
17092;DHT22;8661;45.700;4.880;2022-09-29T16:19:21;17.00;99.90
17092;DHT22;8661;45.700;4.880;2022-09-29T16:21:53;16.90;99.90
17092;DHT22;8661;45.700;4.880;2022-09-29T16:24:20;16.90;99.90
17092;DHT22;8661;45.700;4.880;2022-09-29T16:26:50;16.80;99.90
17092;DHT22;8661;45.700;4.880;2022-09-29T16:29:31;16.70;99.90
17092;DHT22;8661;45.700;4.880;2022-09-29T16:31:59;16.50;99.90
17092;DHT22;8661;45.700;4.880;2022-09-29T16:34:30;16.40;99.90
17092;DHT22;8661;45.700;4.880;2022-09-29T16:37:02;16.30;99.90